sensor_id;sensor_type;location;lat;lon;timestamp;pressure;altitude;pressure_sealevel;temperature;humidity
47636;BME280;33364;50.766;15.338;2023-01-31T00:01:16;94466.63;;;-0.56;73.21
47636;BME280;33364;50.766;15.338;2023-01-31T00:03:42;94473.78;;;-0.65;73.73
47636;BME280;33364;50.766;15.338;2023-01-31T00:06:14;94474.28;;;-0.54;73.64
47636;BME280;33364;50.766;15.338;2023-01-31T00:08:41;94484.41;;;-0.66;73.84
47636;BME280;33364;50.766;15.338;2023-01-31T00:11:07;94473.31;;;-0.75;74.17
47636;BME280;33364;50.766;15.338;2023-01-31T00:13:33;94482.44;;;-0.64;74.01
47636;BME280;33364;50.766;15.338;2023-01-31T00:15:59;94483.47;;;-0.80;74.80
47636;BME280;33364;50.766;15.338;2023-01-31T00:18:25;94479.38;;;-0.68;73.44
47636;BME280;33364;50.766;15.338;2023-01-31T00:20:51;94479.75;;;-0.71;74.26
47636;BME280;33364;50.766;15.338;2023-01-31T00:23:17;94498.19;;;-0.72;73.38
47636;BME280;33364;50.766;15.338;2023-01-31T00:25:43;94506.94;;;-0.80;73.28
47636;BME280;33364;50.766;15.338;2023-01-31T00:28:08;94488.69;;;-0.80;72.41
47636;BME280;33364;50.766;15.338;2023-01-31T00:30:34;94488.44;;;-0.85;72.60
47636;BME280;33364;50.766;15.338;2023-01-31T00:33:00;94503.28;;;-0.86;72.36
47636;BME280;33364;50.766;15.338;2023-01-31T00:35:26;94503.03;;;-0.91;72.52
47636;BME280;33364;50.766;15.338;2023-01-31T00:37:52;94496.38;;;-0.94;71.33
47636;BME280;33364;50.766;15.338;2023-01-31T00:40:18;94509.13;;;-0.84;71.86
47636;BME280;33364;50.766;15.338;2023-01-31T00:42:43;94522.81;;;-0.97;71.36
47636;BME280;33364;50.766;15.338;2023-01-31T00:45:10;94514.38;;;-0.99;71.93
47636;BME280;33364;50.766;15.338;2023-01-31T00:47:36;94518.72;;;-1.06;71.90
47636;BME280;33364;50.766;15.338;2023-01-31T00:50:03;94517.19;;;-1.15;72.72
47636;BME280;33364;50.766;15.338;2023-01-31T00:52:29;94528.50;;;-1.08;70.98
47636;BME280;33364;50.766;15.338;2023-01-31T00:54:55;94554.31;;;-1.13;71.64
47636;BME280;33364;50.766;15.338;2023-01-31T00:57:20;94535.81;;;-1.18;72.14
47636;BME280;33364;50.766;15.338;2023-01-31T00:59:46;94532.41;;;-1.19;72.23
47636;BME280;33364;50.766;15.338;2023-01-31T01:02:12;94543.44;;;-1.17;72.90
47636;BME280;33364;50.766;15.338;2023-01-31T01:04:38;94527.44;;;-1.14;73.21
47636;BME280;33364;50.766;15.338;2023-01-31T01:07:03;94534.34;;;-1.06;72.73
47636;BME280;33364;50.766;15.338;2023-01-31T01:09:29;94521.28;;;-1.27;73.50
47636;BME280;33364;50.766;15.338;2023-01-31T01:11:55;94535.34;;;-1.22;73.08
47636;BME280;33364;50.766;15.338;2023-01-31T01:14:21;94534.81;;;-1.17;73.49
47636;BME280;33364;50.766;15.338;2023-01-31T01:16:47;94545.06;;;-1.16;72.70
47636;BME280;33364;50.766;15.338;2023-01-31T01:19:17;94542.72;;;-1.11;72.85
47636;BME280;33364;50.766;15.338;2023-01-31T01:21:43;94545.94;;;-1.08;71.89
47636;BME280;33364;50.766;15.338;2023-01-31T01:24:17;94558.81;;;-1.07;72.89
47636;BME280;33364;50.766;15.338;2023-01-31T01:26:44;94556.38;;;-1.08;72.29
47636;BME280;33364;50.766;15.338;2023-01-31T01:29:11;94560.16;;;-1.11;72.22
47636;BME280;33364;50.766;15.338;2023-01-31T01:31:38;94552.88;;;-1.16;71.87
47636;BME280;33364;50.766;15.338;2023-01-31T01:34:07;94548.22;;;-1.20;73.03
47636;BME280;33364;50.766;15.338;2023-01-31T01:36:34;94554.31;;;-1.13;72.38
47636;BME280;33364;50.766;15.338;2023-01-31T01:39:03;94559.16;;;-1.10;72.23
47636;BME280;33364;50.766;15.338;2023-01-31T01:41:30;94558.00;;;-1.07;71.66
47636;BME280;33364;50.766;15.338;2023-01-31T01:44:00;94558.19;;;-1.09;72.42
47636;BME280;33364;50.766;15.338;2023-01-31T01:46:29;94558.19;;;-1.09;72.29
47636;BME280;33364;50.766;15.338;2023-01-31T01:49:10;94561.06;;;-1.04;71.48
47636;BME280;33364;50.766;15.338;2023-01-31T01:51:37;94574.81;;;-1.10;71.94
47636;BME280;33364;50.766;15.338;2023-01-31T01:54:05;94567.53;;;-1.15;72.04
47636;BME280;33364;50.766;15.338;2023-01-31T01:56:38;94590.91;;;-1.06;72.02
47636;BME280;33364;50.766;15.338;2023-01-31T01:59:12;94583.00;;;-1.13;71.44
47636;BME280;33364;50.766;15.338;2023-01-31T02:01:39;94583.09;;;-1.21;72.25
47636;BME280;33364;50.766;15.338;2023-01-31T02:04:08;94578.13;;;-1.16;72.53
47636;BME280;33364;50.766;15.338;2023-01-31T02:06:35;94595.22;;;-1.14;73.30
47636;BME280;33364;50.766;15.338;2023-01-31T02:09:02;94579.94;;;-1.17;72.64
47636;BME280;33364;50.766;15.338;2023-01-31T02:11:30;94589.13;;;-1.21;73.01
47636;BME280;33364;50.766;15.338;2023-01-31T02:14:01;94602.06;;;-1.13;72.99
47636;BME280;33364;50.766;15.338;2023-01-31T02:16:28;94600.78;;;-1.17;72.05
47636;BME280;33364;50.766;15.338;2023-01-31T02:18:55;94576.72;;;-1.19;71.93
47636;BME280;33364;50.766;15.338;2023-01-31T02:35:12;94596.56;;;-1.18;72.59
47636;BME280;33364;50.766;15.338;2023-01-31T02:43:25;94618.50;;;-1.12;70.83
47636;BME280;33364;50.766;15.338;2023-01-31T02:46:06;94615.72;;;-1.25;71.23
47636;BME280;33364;50.766;15.338;2023-01-31T02:48:50;94611.75;;;-1.21;71.88
47636;BME280;33364;50.766;15.338;2023-01-31T02:51:25;94623.28;;;-1.16;70.52
47636;BME280;33364;50.766;15.338;2023-01-31T02:54:00;94617.88;;;-1.29;70.79
47636;BME280;33364;50.766;15.338;2023-01-31T02:56:32;94620.31;;;-1.27;71.90
47636;BME280;33364;50.766;15.338;2023-01-31T02:59:07;94621.47;;;-1.30;71.48
47636;BME280;33364;50.766;15.338;2023-01-31T03:01:43;94630.25;;;-1.31;72.10
47636;BME280;33364;50.766;15.338;2023-01-31T03:04:11;94625.88;;;-1.31;73.01
47636;BME280;33364;50.766;15.338;2023-01-31T03:09:32;94631.09;;;-1.31;71.65
47636;BME280;33364;50.766;15.338;2023-01-31T03:18:41;94626.31;;;-1.27;72.23
47636;BME280;33364;50.766;15.338;2023-01-31T03:21:34;94633.06;;;-1.33;73.21
47636;BME280;33364;50.766;15.338;2023-01-31T03:23:58;94634.59;;;-1.23;72.52
47636;BME280;33364;50.766;15.338;2023-01-31T03:26:24;94624.25;;;-1.17;72.31
47636;BME280;33364;50.766;15.338;2023-01-31T03:28:52;94635.47;;;-1.16;72.59
47636;BME280;33364;50.766;15.338;2023-01-31T03:31:48;94644.84;;;-1.22;72.60
47636;BME280;33364;50.766;15.338;2023-01-31T03:34:18;94653.19;;;-1.26;72.78
47636;BME280;33364;50.766;15.338;2023-01-31T03:39:43;94657.44;;;-1.25;70.31
47636;BME280;33364;50.766;15.338;2023-01-31T03:42:35;94665.59;;;-1.28;70.84
47636;BME280;33364;50.766;15.338;2023-01-31T03:45:27;94658.22;;;-1.40;70.74
47636;BME280;33364;50.766;15.338;2023-01-31T03:47:56;94659.00;;;-1.39;70.90
47636;BME280;33364;50.766;15.338;2023-01-31T03:50:27;94646.50;;;-1.44;68.88
47636;BME280;33364;50.766;15.338;2023-01-31T03:53:18;94656.06;;;-1.36;68.81
47636;BME280;33364;50.766;15.338;2023-01-31T03:58:16;94652.38;;;-1.42;70.26
47636;BME280;33364;50.766;15.338;2023-01-31T04:00:46;94661.88;;;-1.49;69.39
47636;BME280;33364;50.766;15.338;2023-01-31T04:05:47;94658.22;;;-1.40;69.66
47636;BME280;33364;50.766;15.338;2023-01-31T04:08:14;94667.91;;;-1.49;70.06
47636;BME280;33364;50.766;15.338;2023-01-31T04:10:40;94659.84;;;-1.62;70.83
47636;BME280;33364;50.766;15.338;2023-01-31T04:13:06;94665.63;;;-1.67;71.21
47636;BME280;33364;50.766;15.338;2023-01-31T04:15:32;94681.31;;;-1.75;71.85
47636;BME280;33364;50.766;15.338;2023-01-31T04:17:58;94677.44;;;-1.79;72.25
47636;BME280;33364;50.766;15.338;2023-01-31T04:20:24;94684.28;;;-1.78;72.61
47636;BME280;33364;50.766;15.338;2023-01-31T04:22:50;94673.78;;;-1.70;73.05
47636;BME280;33364;50.766;15.338;2023-01-31T04:25:15;94672.72;;;-1.60;73.25
47636;BME280;33364;50.766;15.338;2023-01-31T04:27:41;94675.97;;;-1.58;73.68
47636;BME280;33364;50.766;15.338;2023-01-31T04:30:08;94671.66;;;-1.51;72.61
47636;BME280;33364;50.766;15.338;2023-01-31T04:32:34;94670.59;;;-1.57;72.94
47636;BME280;33364;50.766;15.338;2023-01-31T04:35:00;94686.22;;;-1.57;73.25
47636;BME280;33364;50.766;15.338;2023-01-31T04:37:26;94677.91;;;-1.60;73.56
47636;BME280;33364;50.766;15.338;2023-01-31T04:39:52;94666.06;;;-1.63;74.18
47636;BME280;33364;50.766;15.338;2023-01-31T04:42:17;94677.28;;;-1.62;73.78
47636;BME280;33364;50.766;15.338;2023-01-31T04:44:43;94675.03;;;-1.66;73.64
47636;BME280;33364;50.766;15.338;2023-01-31T04:47:09;94677.66;;;-1.66;73.14
47636;BME280;33364;50.766;15.338;2023-01-31T04:49:34;94692.66;;;-1.68;73.63
47636;BME280;33364;50.766;15.338;2023-01-31T04:52:00;94692.41;;;-1.58;72.79
47636;BME280;33364;50.766;15.338;2023-01-31T04:54:26;94701.97;;;-1.50;72.37
47636;BME280;33364;50.766;15.338;2023-01-31T04:56:52;94704.34;;;-1.63;72.46
47636;BME280;33364;50.766;15.338;2023-01-31T04:59:18;94695.59;;;-1.71;72.28
47636;BME280;33364;50.766;15.338;2023-01-31T05:01:43;94712.44;;;-1.81;72.30
47636;BME280;33364;50.766;15.338;2023-01-31T05:04:09;94701.66;;;-1.78;72.50
47636;BME280;33364;50.766;15.338;2023-01-31T05:06:36;94723.72;;;-1.89;73.34
47636;BME280;33364;50.766;15.338;2023-01-31T05:09:02;94714.28;;;-1.90;73.19
47636;BME280;33364;50.766;15.338;2023-01-31T05:11:28;94721.63;;;-1.94;73.30
47636;BME280;33364;50.766;15.338;2023-01-31T05:13:54;94707.59;;;-1.85;72.61
47636;BME280;33364;50.766;15.338;2023-01-31T05:16:19;94708.75;;;-1.87;72.97
47636;BME280;33364;50.766;15.338;2023-01-31T05:18:45;94709.06;;;-1.90;73.66
47636;BME280;33364;50.766;15.338;2023-01-31T05:21:11;94705.16;;;-1.86;73.23
47636;BME280;33364;50.766;15.338;2023-01-31T05:23:37;94696.00;;;-1.82;72.56
47636;BME280;33364;50.766;15.338;2023-01-31T05:26:03;94687.34;;;-1.97;72.74
47636;BME280;33364;50.766;15.338;2023-01-31T05:28:29;94703.25;;;-1.92;74.01
47636;BME280;33364;50.766;15.338;2023-01-31T05:31:01;94692.78;;;-1.84;72.64
47636;BME280;33364;50.766;15.338;2023-01-31T05:33:28;94704.50;;;-1.88;73.38
47636;BME280;33364;50.766;15.338;2023-01-31T05:35:57;94704.50;;;-1.88;73.14
47636;BME280;33364;50.766;15.338;2023-01-31T05:38:23;94689.66;;;-1.79;72.94
47636;BME280;33364;50.766;15.338;2023-01-31T05:40:49;94692.72;;;-1.76;72.70
47636;BME280;33364;50.766;15.338;2023-01-31T05:43:15;94694.75;;;-1.86;73.17
47636;BME280;33364;50.766;15.338;2023-01-31T05:45:41;94707.09;;;-1.88;74.11
47636;BME280;33364;50.766;15.338;2023-01-31T05:48:07;94714.13;;;-1.89;74.63
47636;BME280;33364;50.766;15.338;2023-01-31T05:50:33;94714.28;;;-1.90;75.56
47636;BME280;33364;50.766;15.338;2023-01-31T05:52:59;94730.25;;;-1.93;75.97
47636;BME280;33364;50.766;15.338;2023-01-31T05:55:27;94747.22;;;-1.97;76.51
47636;BME280;33364;50.766;15.338;2023-01-31T05:57:54;94755.44;;;-1.86;76.14
47636;BME280;33364;50.766;15.338;2023-01-31T06:00:20;94755.91;;;-1.82;75.84
47636;BME280;33364;50.766;15.338;2023-01-31T06:02:46;94746.78;;;-1.78;75.51
47636;BME280;33364;50.766;15.338;2023-01-31T06:05:13;94754.88;;;-1.73;75.46
47636;BME280;33364;50.766;15.338;2023-01-31T06:07:39;94760.53;;;-1.69;75.47
47636;BME280;33364;50.766;15.338;2023-01-31T06:10:07;94778.94;;;-1.71;75.69
47636;BME280;33364;50.766;15.338;2023-01-31T06:12:33;94780.63;;;-1.78;76.05
47636;BME280;33364;50.766;15.338;2023-01-31T06:14:59;94786.94;;;-1.72;75.33
47636;BME280;33364;50.766;15.338;2023-01-31T06:17:25;94785.50;;;-1.75;75.45
47636;BME280;33364;50.766;15.338;2023-01-31T06:19:51;94773.41;;;-1.68;75.50
47636;BME280;33364;50.766;15.338;2023-01-31T06:22:18;94779.59;;;-1.69;75.86
47636;BME280;33364;50.766;15.338;2023-01-31T06:24:44;94779.41;;;-1.67;76.00
47636;BME280;33364;50.766;15.338;2023-01-31T06:27:10;94782.50;;;-1.63;75.69
47636;BME280;33364;50.766;15.338;2023-01-31T06:29:36;94782.13;;;-1.60;75.92
47636;BME280;33364;50.766;15.338;2023-01-31T06:32:03;94794.53;;;-1.62;76.59
47636;BME280;33364;50.766;15.338;2023-01-31T06:34:28;94795.34;;;-1.62;76.82
47636;BME280;33364;50.766;15.338;2023-01-31T06:36:55;94805.56;;;-1.60;75.99
47636;BME280;33364;50.766;15.338;2023-01-31T06:39:20;94795.81;;;-1.58;75.95
47636;BME280;33364;50.766;15.338;2023-01-31T06:41:46;94809.13;;;-1.53;75.94
47636;BME280;33364;50.766;15.338;2023-01-31T06:44:12;94801.03;;;-1.58;75.88
47636;BME280;33364;50.766;15.338;2023-01-31T06:46:38;94810.44;;;-1.57;76.18
47636;BME280;33364;50.766;15.338;2023-01-31T06:49:03;94818.22;;;-1.49;75.53
47636;BME280;33364;50.766;15.338;2023-01-31T06:51:29;94818.38;;;-1.51;75.64
47636;BME280;33364;50.766;15.338;2023-01-31T06:53:55;94817.59;;;-1.51;76.44
47636;BME280;33364;50.766;15.338;2023-01-31T06:56:21;94825.22;;;-1.50;75.50
47636;BME280;33364;50.766;15.338;2023-01-31T06:58:47;94819.50;;;-1.45;75.50
47636;BME280;33364;50.766;15.338;2023-01-31T07:01:14;94827.31;;;-1.45;76.08
47636;BME280;33364;50.766;15.338;2023-01-31T07:03:39;94830.91;;;-1.46;77.15
47636;BME280;33364;50.766;15.338;2023-01-31T07:06:07;94822.44;;;-1.48;77.89
47636;BME280;33364;50.766;15.338;2023-01-31T07:08:34;94842.09;;;-1.37;77.87
47636;BME280;33364;50.766;15.338;2023-01-31T07:11:00;94831.47;;;-1.36;77.48
47636;BME280;33364;50.766;15.338;2023-01-31T07:13:27;94837.56;;;-1.43;76.60
47636;BME280;33364;50.766;15.338;2023-01-31T07:15:54;94825.97;;;-1.41;75.72
47636;BME280;33364;50.766;15.338;2023-01-31T07:18:19;94839.28;;;-1.36;76.24
47636;BME280;33364;50.766;15.338;2023-01-31T07:20:45;94852.69;;;-1.39;76.07
47636;BME280;33364;50.766;15.338;2023-01-31T07:23:11;94857.69;;;-1.29;76.60
47636;BME280;33364;50.766;15.338;2023-01-31T07:25:37;94870.41;;;-1.34;76.58
47636;BME280;33364;50.766;15.338;2023-01-31T07:28:03;94861.94;;;-1.36;76.12
47636;BME280;33364;50.766;15.338;2023-01-31T07:30:29;94858.72;;;-1.38;76.32
47636;BME280;33364;50.766;15.338;2023-01-31T07:32:55;94861.16;;;-1.37;75.14
47636;BME280;33364;50.766;15.338;2023-01-31T07:35:21;94857.53;;;-1.27;73.87
47636;BME280;33364;50.766;15.338;2023-01-31T07:37:47;94867.13;;;-1.28;73.64
47636;BME280;33364;50.766;15.338;2023-01-31T07:40:14;94883.34;;;-1.18;74.20
47636;BME280;33364;50.766;15.338;2023-01-31T07:42:40;94873.00;;;-1.03;73.46
47636;BME280;33364;50.766;15.338;2023-01-31T07:45:08;94864.06;;;-1.08;73.84
47636;BME280;33364;50.766;15.338;2023-01-31T07:47:35;94861.28;;;-1.07;74.00
47636;BME280;33364;50.766;15.338;2023-01-31T07:50:01;94872.34;;;-1.05;73.38
47636;BME280;33364;50.766;15.338;2023-01-31T07:52:27;94875.44;;;-1.01;73.60
47636;BME280;33364;50.766;15.338;2023-01-31T07:54:53;94876.16;;;-0.93;74.29
47636;BME280;33364;50.766;15.338;2023-01-31T07:57:18;94866.66;;;-0.85;73.24
47636;BME280;33364;50.766;15.338;2023-01-31T07:59:44;94876.78;;;-0.90;74.40
47636;BME280;33364;50.766;15.338;2023-01-31T08:02:15;94871.84;;;-0.85;74.28
47636;BME280;33364;50.766;15.338;2023-01-31T08:05:00;94875.88;;;-0.75;74.55
47636;BME280;33364;50.766;15.338;2023-01-31T08:07:27;94871.72;;;-0.69;73.52
47636;BME280;33364;50.766;15.338;2023-01-31T08:09:53;94874.81;;;-0.65;72.92
47636;BME280;33364;50.766;15.338;2023-01-31T08:12:19;94867.50;;;-0.70;73.36
47636;BME280;33364;50.766;15.338;2023-01-31T08:14:45;94865.00;;;-0.63;73.90
47636;BME280;33364;50.766;15.338;2023-01-31T08:17:11;94865.47;;;-0.60;73.64
47636;BME280;33364;50.766;15.338;2023-01-31T08:19:37;94873.56;;;-0.54;73.40
47636;BME280;33364;50.766;15.338;2023-01-31T08:22:04;94875.72;;;-0.58;73.56
47636;BME280;33364;50.766;15.338;2023-01-31T08:24:30;94878.44;;;-0.51;72.14
47636;BME280;33364;50.766;15.338;2023-01-31T08:26:57;94879.78;;;-0.56;72.90
47636;BME280;33364;50.766;15.338;2023-01-31T08:29:23;94883.19;;;-0.55;73.18
47636;BME280;33364;50.766;15.338;2023-01-31T08:31:49;94877.44;;;-0.50;73.32
47636;BME280;33364;50.766;15.338;2023-01-31T08:34:16;94881.13;;;-0.60;72.67
47636;BME280;33364;50.766;15.338;2023-01-31T08:36:42;94872.03;;;-0.64;73.97
47636;BME280;33364;50.766;15.338;2023-01-31T08:39:08;94883.88;;;-0.76;73.18
47636;BME280;33364;50.766;15.338;2023-01-31T08:41:35;94892.94;;;-0.72;74.09
47636;BME280;33364;50.766;15.338;2023-01-31T08:44:02;94890.06;;;-0.77;75.27
47636;BME280;33364;50.766;15.338;2023-01-31T08:46:29;94893.16;;;-0.73;74.83
47636;BME280;33364;50.766;15.338;2023-01-31T08:48:56;94892.41;;;-0.67;75.42
47636;BME280;33364;50.766;15.338;2023-01-31T08:51:22;94891.09;;;-0.63;75.60
47636;BME280;33364;50.766;15.338;2023-01-31T08:53:48;94895.69;;;-0.65;76.41
47636;BME280;33364;50.766;15.338;2023-01-31T08:56:15;94896.59;;;-0.58;76.69
47636;BME280;33364;50.766;15.338;2023-01-31T08:58:42;94903.81;;;-0.60;76.98
47636;BME280;33364;50.766;15.338;2023-01-31T09:01:13;94914.94;;;-0.66;77.49
47636;BME280;33364;50.766;15.338;2023-01-31T09:03:40;94924.22;;;-0.64;77.78
47636;BME280;33364;50.766;15.338;2023-01-31T09:06:09;94913.28;;;-0.67;78.32
47636;BME280;33364;50.766;15.338;2023-01-31T09:08:35;94921.47;;;-0.70;79.53
47636;BME280;33364;50.766;15.338;2023-01-31T09:11:01;94920.03;;;-0.73;79.47
47636;BME280;33364;50.766;15.338;2023-01-31T09:13:29;94917.25;;;-0.71;79.13
47636;BME280;33364;50.766;15.338;2023-01-31T09:16:04;94920.72;;;-0.79;79.08
47636;BME280;33364;50.766;15.338;2023-01-31T09:18:31;94929.13;;;-0.69;78.75
47636;BME280;33364;50.766;15.338;2023-01-31T09:21:12;94928.31;;;-0.69;79.07
47636;BME280;33364;50.766;15.338;2023-01-31T09:23:40;94922.03;;;-0.75;78.81
47636;BME280;33364;50.766;15.338;2023-01-31T09:26:06;94938.31;;;-0.73;79.37
47636;BME280;33364;50.766;15.338;2023-01-31T09:28:32;94930.25;;;-0.63;78.54
47636;BME280;33364;50.766;15.338;2023-01-31T09:31:03;94941.47;;;-0.63;78.82
47636;BME280;33364;50.766;15.338;2023-01-31T09:33:29;94940.84;;;-0.65;79.14
47636;BME280;33364;50.766;15.338;2023-01-31T09:35:57;94953.09;;;-0.65;79.39
47636;BME280;33364;50.766;15.338;2023-01-31T09:38:24;94963.75;;;-0.52;79.84
47636;BME280;33364;50.766;15.338;2023-01-31T09:40:49;94948.69;;;-0.65;77.59
47636;BME280;33364;50.766;15.338;2023-01-31T09:43:17;94941.81;;;-0.66;78.36
47636;BME280;33364;50.766;15.338;2023-01-31T09:45:45;94940.97;;;-0.58;78.56
47636;BME280;33364;50.766;15.338;2023-01-31T09:48:27;94937.56;;;-0.59;78.01
47636;BME280;33364;50.766;15.338;2023-01-31T09:50:55;94938.25;;;-0.65;78.45
47636;BME280;33364;50.766;15.338;2023-01-31T09:53:29;94946.59;;;-0.69;78.99
47636;BME280;33364;50.766;15.338;2023-01-31T10:06:52;94929.44;;;-0.64;79.02
47636;BME280;33364;50.766;15.338;2023-01-31T10:09:43;94925.38;;;-0.66;79.26
47636;BME280;33364;50.766;15.338;2023-01-31T10:12:24;94925.72;;;-0.69;79.69
47636;BME280;33364;50.766;15.338;2023-01-31T10:14:56;94922.25;;;-0.62;79.96
47636;BME280;33364;50.766;15.338;2023-01-31T10:20:02;94915.78;;;-0.51;80.00
47636;BME280;33364;50.766;15.338;2023-01-31T10:22:57;94903.91;;;-0.53;79.78
47636;BME280;33364;50.766;15.338;2023-01-31T10:25:36;94912.34;;;-0.51;80.01
47636;BME280;33364;50.766;15.338;2023-01-31T10:28:10;94905.16;;;-0.49;79.98
47636;BME280;33364;50.766;15.338;2023-01-31T10:33:54;94909.25;;;-0.70;80.56
47636;BME280;33364;50.766;15.338;2023-01-31T10:36:27;94918.50;;;-0.67;78.92
47636;BME280;33364;50.766;15.338;2023-01-31T10:39:01;94906.72;;;-0.78;78.92
47636;BME280;33364;50.766;15.338;2023-01-31T10:41:37;94921.41;;;-0.62;79.07
47636;BME280;33364;50.766;15.338;2023-01-31T10:44:12;94918.28;;;-0.58;78.60
47636;BME280;33364;50.766;15.338;2023-01-31T10:46:40;94928.19;;;-0.53;78.94
47636;BME280;33364;50.766;15.338;2023-01-31T10:49:07;94919.13;;;-0.42;77.30
47636;BME280;33364;50.766;15.338;2023-01-31T10:51:38;94926.38;;;-0.52;77.43
47636;BME280;33364;50.766;15.338;2023-01-31T10:56:45;94912.88;;;-0.56;77.37
47636;BME280;33364;50.766;15.338;2023-01-31T10:59:36;94916.53;;;-0.42;76.86
47636;BME280;33364;50.766;15.338;2023-01-31T11:02:03;94926.88;;;-0.49;75.68
47636;BME280;33364;50.766;15.338;2023-01-31T11:04:29;94916.53;;;-0.42;75.94
47636;BME280;33364;50.766;15.338;2023-01-31T11:06:58;94927.03;;;-0.50;75.15
47636;BME280;33364;50.766;15.338;2023-01-31T11:09:28;94918.94;;;-0.56;75.30
47636;BME280;33364;50.766;15.338;2023-01-31T11:12:06;94912.00;;;-0.48;75.35
47636;BME280;33364;50.766;15.338;2023-01-31T11:14:34;94904.09;;;-0.40;74.47
47636;BME280;33364;50.766;15.338;2023-01-31T11:17:08;94907.50;;;-0.40;75.04
47636;BME280;33364;50.766;15.338;2023-01-31T11:19:48;94903.13;;;-0.39;74.19
47636;BME280;33364;50.766;15.338;2023-01-31T11:22:26;94894.13;;;-0.37;74.57
47636;BME280;33364;50.766;15.338;2023-01-31T11:24:54;94894.91;;;-0.36;74.36
47636;BME280;33364;50.766;15.338;2023-01-31T11:27:32;94884.47;;;-0.36;74.49
47636;BME280;33364;50.766;15.338;2023-01-31T11:30:01;94891.22;;;-0.42;74.29
47636;BME280;33364;50.766;15.338;2023-01-31T11:32:31;94883.56;;;-0.43;74.80
47636;BME280;33364;50.766;15.338;2023-01-31T11:35:05;94880.00;;;-0.27;75.11
47636;BME280;33364;50.766;15.338;2023-01-31T11:37:32;94882.53;;;-0.19;74.46
47636;BME280;33364;50.766;15.338;2023-01-31T11:40:03;94868.19;;;-0.08;73.22
47636;BME280;33364;50.766;15.338;2023-01-31T11:42:29;94867.47;;;-0.17;73.72
47636;BME280;33364;50.766;15.338;2023-01-31T11:48:14;94868.34;;;-0.40;75.37
47636;BME280;33364;50.766;15.338;2023-01-31T11:50:30;94869.66;;;-0.35;75.50
47636;BME280;33364;50.766;15.338;2023-01-31T11:52:59;94867.22;;;-0.37;75.16
47636;BME280;33364;50.766;15.338;2023-01-31T11:55:27;94869.28;;;-0.32;74.94
47636;BME280;33364;50.766;15.338;2023-01-31T11:58:00;94845.63;;;-0.31;74.90
47636;BME280;33364;50.766;15.338;2023-01-31T12:00:30;94843.63;;;-0.29;75.17
47636;BME280;33364;50.766;15.338;2023-01-31T12:03:00;94835.00;;;-0.29;74.64
47636;BME280;33364;50.766;15.338;2023-01-31T12:05:42;94833.44;;;-0.24;74.55
47636;BME280;33364;50.766;15.338;2023-01-31T12:08:35;94833.63;;;-0.25;74.48
47636;BME280;33364;50.766;15.338;2023-01-31T12:13:31;94830.13;;;-0.17;74.60
47636;BME280;33364;50.766;15.338;2023-01-31T12:16:02;94826.16;;;-0.13;74.87
47636;BME280;33364;50.766;15.338;2023-01-31T12:26:53;94815.53;;;-0.27;74.78
47636;BME280;33364;50.766;15.338;2023-01-31T12:41:28;94793.50;;;-0.39;76.01
47636;BME280;33364;50.766;15.338;2023-01-31T12:44:35;94786.53;;;-0.32;76.52
47636;BME280;33364;50.766;15.338;2023-01-31T12:47:26;94796.63;;;-0.44;76.53
47636;BME280;33364;50.766;15.338;2023-01-31T12:50:19;94793.09;;;-0.36;76.31
47636;BME280;33364;50.766;15.338;2023-01-31T12:58:57;94778.00;;;-0.56;77.54
47636;BME280;33364;50.766;15.338;2023-01-31T13:01:55;94769.16;;;-0.54;77.87
47636;BME280;33364;50.766;15.338;2023-01-31T13:07:04;94760.81;;;-0.65;78.28
47636;BME280;33364;50.766;15.338;2023-01-31T13:09:34;94755.22;;;-0.62;78.40
47636;BME280;33364;50.766;15.338;2023-01-31T13:14:33;94747.13;;;-0.52;78.22
47636;BME280;33364;50.766;15.338;2023-01-31T13:17:03;94747.41;;;-0.62;78.62
47636;BME280;33364;50.766;15.338;2023-01-31T13:19:49;94753.16;;;-0.66;78.43
47636;BME280;33364;50.766;15.338;2023-01-31T13:22:24;94744.44;;;-0.73;79.03
47636;BME280;33364;50.766;15.338;2023-01-31T13:25:14;94750.91;;;-0.84;79.29
47636;BME280;33364;50.766;15.338;2023-01-31T13:27:46;94736.31;;;-0.94;79.75
47636;BME280;33364;50.766;15.338;2023-01-31T13:30:21;94737.59;;;-0.89;79.69
47636;BME280;33364;50.766;15.338;2023-01-31T13:32:49;94744.03;;;-0.85;79.49
47636;BME280;33364;50.766;15.338;2023-01-31T13:35:34;94734.34;;;-0.91;79.88
47636;BME280;33364;50.766;15.338;2023-01-31T13:38:07;94722.91;;;-0.90;79.64
47636;BME280;33364;50.766;15.338;2023-01-31T13:40:56;94719.31;;;-0.89;79.90
47636;BME280;33364;50.766;15.338;2023-01-31T13:43:22;94726.78;;;-0.86;80.23
47636;BME280;33364;50.766;15.338;2023-01-31T13:45:48;94726.63;;;-0.70;79.31
47636;BME280;33364;50.766;15.338;2023-01-31T13:51:00;94717.06;;;-0.78;79.19
47636;BME280;33364;50.766;15.338;2023-01-31T13:53:34;94713.09;;;-0.88;79.69
47636;BME280;33364;50.766;15.338;2023-01-31T13:56:02;94702.59;;;-0.80;79.32
47636;BME280;33364;50.766;15.338;2023-01-31T13:58:33;94688.13;;;-0.98;79.81
47636;BME280;33364;50.766;15.338;2023-01-31T14:01:04;94683.53;;;-0.96;80.07
47636;BME280;33364;50.766;15.338;2023-01-31T14:06:57;94680.13;;;-0.81;79.41
47636;BME280;33364;50.766;15.338;2023-01-31T14:22:18;94674.91;;;-0.96;80.41
47636;BME280;33364;50.766;15.338;2023-01-31T14:40:33;94667.25;;;-0.98;80.76
47636;BME280;33364;50.766;15.338;2023-01-31T14:51:57;94654.13;;;-0.89;80.05
47636;BME280;33364;50.766;15.338;2023-01-31T14:57:44;94657.88;;;-1.07;81.10
47636;BME280;33364;50.766;15.338;2023-01-31T15:08:29;94649.09;;;-1.06;81.75
47636;BME280;33364;50.766;15.338;2023-01-31T15:11:04;94649.19;;;-0.99;82.09
47636;BME280;33364;50.766;15.338;2023-01-31T15:15:57;94637.38;;;-1.10;82.57
47636;BME280;33364;50.766;15.338;2023-01-31T15:18:23;94635.88;;;-1.04;82.70
47636;BME280;33364;50.766;15.338;2023-01-31T15:20:55;94636.66;;;-1.04;82.92
47636;BME280;33364;50.766;15.338;2023-01-31T15:23:24;94646.66;;;-1.07;83.09
47636;BME280;33364;50.766;15.338;2023-01-31T15:25:51;94635.59;;;-1.09;83.51
47636;BME280;33364;50.766;15.338;2023-01-31T15:28:25;94634.06;;;-1.04;83.37
47636;BME280;33364;50.766;15.338;2023-01-31T15:30:58;94629.75;;;-1.12;83.22
47636;BME280;33364;50.766;15.338;2023-01-31T15:33:39;94625.78;;;-1.07;83.27